sensor_id;sensor_type;location;lat;lon;timestamp;P1;durP1;ratioP1;P2;durP2;ratioP2
23678;SDS011;12016;51.668;6.874;2023-02-15T00:05:15;14.10;;;10.20;;
23678;SDS011;12016;51.668;6.874;2023-02-15T00:11:18;13.48;;;9.95;;
23678;SDS011;12016;51.668;6.874;2023-02-15T00:17:41;14.05;;;11.05;;
23678;SDS011;12016;51.668;6.874;2023-02-15T00:23:43;16.15;;;11.25;;
23678;SDS011;12016;51.668;6.874;2023-02-15T00:29:46;16.83;;;11.77;;
23678;SDS011;12016;51.668;6.874;2023-02-15T00:35:55;13.45;;;9.88;;
23678;SDS011;12016;51.668;6.874;2023-02-15T00:41:57;14.45;;;10.55;;
23678;SDS011;12016;51.668;6.874;2023-02-15T00:47:59;14.68;;;10.27;;
23678;SDS011;12016;51.668;6.874;2023-02-15T00:54:01;14.95;;;10.70;;
23678;SDS011;12016;51.668;6.874;2023-02-15T01:00:03;14.98;;;10.38;;
23678;SDS011;12016;51.668;6.874;2023-02-15T01:06:05;13.30;;;10.20;;
23678;SDS011;12016;51.668;6.874;2023-02-15T01:12:07;12.68;;;9.02;;
23678;SDS011;12016;51.668;6.874;2023-02-15T01:18:10;14.90;;;10.43;;
23678;SDS011;12016;51.668;6.874;2023-02-15T01:24:13;13.30;;;10.25;;
23678;SDS011;12016;51.668;6.874;2023-02-15T01:30:15;14.52;;;9.85;;
23678;SDS011;12016;51.668;6.874;2023-02-15T01:36:17;12.65;;;9.15;;
23678;SDS011;12016;51.668;6.874;2023-02-15T01:42:23;13.85;;;10.45;;
23678;SDS011;12016;51.668;6.874;2023-02-15T01:48:26;16.08;;;11.23;;
23678;SDS011;12016;51.668;6.874;2023-02-15T01:54:31;16.50;;;11.07;;
23678;SDS011;12016;51.668;6.874;2023-02-15T02:00:38;16.48;;;10.38;;
23678;SDS011;12016;51.668;6.874;2023-02-15T02:06:40;14.30;;;10.07;;
23678;SDS011;12016;51.668;6.874;2023-02-15T02:12:43;15.15;;;11.50;;
23678;SDS011;12016;51.668;6.874;2023-02-15T02:37:43;14.55;;;10.85;;
23678;SDS011;12016;51.668;6.874;2023-02-15T02:50:26;16.23;;;9.93;;
23678;SDS011;12016;51.668;6.874;2023-02-15T02:56:33;13.52;;;10.20;;
23678;SDS011;12016;51.668;6.874;2023-02-15T03:02:41;13.27;;;10.15;;
23678;SDS011;12016;51.668;6.874;2023-02-15T03:08:51;16.10;;;11.43;;
23678;SDS011;12016;51.668;6.874;2023-02-15T03:15:07;17.45;;;12.18;;
23678;SDS011;12016;51.668;6.874;2023-02-15T03:21:24;17.42;;;12.45;;
23678;SDS011;12016;51.668;6.874;2023-02-15T03:27:33;17.17;;;12.13;;
23678;SDS011;12016;51.668;6.874;2023-02-15T03:33:57;17.92;;;12.65;;
23678;SDS011;12016;51.668;6.874;2023-02-15T03:40:06;15.70;;;11.00;;
23678;SDS011;12016;51.668;6.874;2023-02-15T03:46:50;17.77;;;11.13;;
23678;SDS011;12016;51.668;6.874;2023-02-15T03:52:58;15.55;;;12.05;;
23678;SDS011;12016;51.668;6.874;2023-02-15T03:59:03;15.15;;;11.57;;
23678;SDS011;12016;51.668;6.874;2023-02-15T04:05:24;18.87;;;12.63;;
23678;SDS011;12016;51.668;6.874;2023-02-15T04:11:26;17.38;;;12.75;;
23678;SDS011;12016;51.668;6.874;2023-02-15T04:17:28;16.98;;;12.00;;
23678;SDS011;12016;51.668;6.874;2023-02-15T04:23:31;15.75;;;11.07;;
23678;SDS011;12016;51.668;6.874;2023-02-15T04:29:51;14.00;;;11.18;;
23678;SDS011;12016;51.668;6.874;2023-02-15T04:35:53;15.82;;;11.38;;
23678;SDS011;12016;51.668;6.874;2023-02-15T04:41:54;15.80;;;11.30;;
23678;SDS011;12016;51.668;6.874;2023-02-15T04:47:56;14.95;;;11.60;;
23678;SDS011;12016;51.668;6.874;2023-02-15T04:53:58;18.23;;;12.43;;
23678;SDS011;12016;51.668;6.874;2023-02-15T05:00:00;17.02;;;12.45;;
23678;SDS011;12016;51.668;6.874;2023-02-15T05:06:02;15.93;;;12.80;;
23678;SDS011;12016;51.668;6.874;2023-02-15T05:12:04;18.60;;;12.57;;
23678;SDS011;12016;51.668;6.874;2023-02-15T05:18:06;18.70;;;12.38;;
23678;SDS011;12016;51.668;6.874;2023-02-15T05:24:09;20.77;;;13.02;;
23678;SDS011;12016;51.668;6.874;2023-02-15T05:30:31;17.45;;;12.00;;
23678;SDS011;12016;51.668;6.874;2023-02-15T05:36:33;18.65;;;13.40;;
23678;SDS011;12016;51.668;6.874;2023-02-15T05:42:35;20.88;;;15.32;;
23678;SDS011;12016;51.668;6.874;2023-02-15T05:48:37;23.15;;;16.30;;
23678;SDS011;12016;51.668;6.874;2023-02-15T05:54:39;20.02;;;14.18;;
23678;SDS011;12016;51.668;6.874;2023-02-15T06:00:41;18.90;;;14.43;;
23678;SDS011;12016;51.668;6.874;2023-02-15T06:06:43;18.73;;;14.15;;
23678;SDS011;12016;51.668;6.874;2023-02-15T06:12:45;17.88;;;13.40;;
23678;SDS011;12016;51.668;6.874;2023-02-15T06:18:46;17.33;;;13.73;;
23678;SDS011;12016;51.668;6.874;2023-02-15T06:24:50;18.20;;;14.43;;
23678;SDS011;12016;51.668;6.874;2023-02-15T06:30:52;19.35;;;14.85;;
23678;SDS011;12016;51.668;6.874;2023-02-15T06:36:54;21.73;;;15.45;;
23678;SDS011;12016;51.668;6.874;2023-02-15T06:42:56;19.95;;;15.15;;
23678;SDS011;12016;51.668;6.874;2023-02-15T06:48:57;19.67;;;14.13;;
23678;SDS011;12016;51.668;6.874;2023-02-15T06:54:59;21.25;;;14.52;;
23678;SDS011;12016;51.668;6.874;2023-02-15T07:01:01;19.63;;;14.20;;
23678;SDS011;12016;51.668;6.874;2023-02-15T07:07:07;21.95;;;15.68;;
23678;SDS011;12016;51.668;6.874;2023-02-15T07:13:10;20.90;;;15.75;;
23678;SDS011;12016;51.668;6.874;2023-02-15T07:19:12;23.25;;;17.67;;
23678;SDS011;12016;51.668;6.874;2023-02-15T07:25:14;21.85;;;15.90;;
23678;SDS011;12016;51.668;6.874;2023-02-15T07:31:17;21.35;;;16.48;;
23678;SDS011;12016;51.668;6.874;2023-02-15T07:37:19;23.27;;;17.23;;
23678;SDS011;12016;51.668;6.874;2023-02-15T07:43:21;24.00;;;18.08;;
23678;SDS011;12016;51.668;6.874;2023-02-15T07:49:23;32.88;;;22.33;;
23678;SDS011;12016;51.668;6.874;2023-02-15T07:55:25;25.55;;;19.38;;
23678;SDS011;12016;51.668;6.874;2023-02-15T08:01:34;25.20;;;18.00;;
23678;SDS011;12016;51.668;6.874;2023-02-15T08:07:38;22.92;;;16.48;;
23678;SDS011;12016;51.668;6.874;2023-02-15T08:13:41;23.70;;;17.67;;
23678;SDS011;12016;51.668;6.874;2023-02-15T08:19:55;31.80;;;21.08;;
23678;SDS011;12016;51.668;6.874;2023-02-15T08:25:59;31.48;;;20.15;;
23678;SDS011;12016;51.668;6.874;2023-02-15T08:32:02;26.35;;;19.75;;
23678;SDS011;12016;51.668;6.874;2023-02-15T08:38:07;26.02;;;20.63;;
23678;SDS011;12016;51.668;6.874;2023-02-15T08:44:09;27.02;;;20.33;;
23678;SDS011;12016;51.668;6.874;2023-02-15T08:50:12;29.45;;;23.15;;
23678;SDS011;12016;51.668;6.874;2023-02-15T08:56:14;29.02;;;21.58;;
23678;SDS011;12016;51.668;6.874;2023-02-15T09:02:16;30.60;;;22.77;;
23678;SDS011;12016;51.668;6.874;2023-02-15T09:08:18;30.70;;;22.88;;
23678;SDS011;12016;51.668;6.874;2023-02-15T09:14:21;31.33;;;24.17;;
23678;SDS011;12016;51.668;6.874;2023-02-15T09:20:24;30.80;;;23.33;;
23678;SDS011;12016;51.668;6.874;2023-02-15T09:26:27;29.88;;;23.63;;
23678;SDS011;12016;51.668;6.874;2023-02-15T09:32:31;33.33;;;25.00;;
23678;SDS011;12016;51.668;6.874;2023-02-15T09:38:33;31.25;;;24.17;;
23678;SDS011;12016;51.668;6.874;2023-02-15T09:51:13;30.88;;;23.98;;
23678;SDS011;12016;51.668;6.874;2023-02-15T09:57:45;29.13;;;22.95;;
23678;SDS011;12016;51.668;6.874;2023-02-15T10:04:27;27.15;;;20.75;;
23678;SDS011;12016;51.668;6.874;2023-02-15T10:30:10;21.23;;;16.38;;
23678;SDS011;12016;51.668;6.874;2023-02-15T10:36:24;19.95;;;15.00;;
23678;SDS011;12016;51.668;6.874;2023-02-15T10:42:59;17.23;;;14.32;;
23678;SDS011;12016;51.668;6.874;2023-02-15T10:55:21;14.30;;;11.88;;
23678;SDS011;12016;51.668;6.874;2023-02-15T11:01:40;17.80;;;12.35;;
23678;SDS011;12016;51.668;6.874;2023-02-15T11:07:50;14.15;;;12.30;;
23678;SDS011;12016;51.668;6.874;2023-02-15T11:13:56;13.32;;;10.65;;
23678;SDS011;12016;51.668;6.874;2023-02-15T11:20:47;16.17;;;10.30;;
23678;SDS011;12016;51.668;6.874;2023-02-15T11:26:47;13.02;;;10.30;;
23678;SDS011;12016;51.668;6.874;2023-02-15T11:32:58;12.23;;;9.90;;
23678;SDS011;12016;51.668;6.874;2023-02-15T11:39:08;13.05;;;10.55;;
23678;SDS011;12016;51.668;6.874;2023-02-15T11:51:23;13.83;;;10.00;;
23678;SDS011;12016;51.668;6.874;2023-02-15T12:03:43;11.48;;;9.50;;
23678;SDS011;12016;51.668;6.874;2023-02-15T12:09:53;13.30;;;9.63;;
23678;SDS011;12016;51.668;6.874;2023-02-15T12:16:04;12.05;;;9.65;;
23678;SDS011;12016;51.668;6.874;2023-02-15T12:22:23;14.07;;;9.07;;
23678;SDS011;12016;51.668;6.874;2023-02-15T12:28:38;10.88;;;9.10;;
23678;SDS011;12016;51.668;6.874;2023-02-15T12:34:43;14.27;;;9.75;;
23678;SDS011;12016;51.668;6.874;2023-02-15T12:40:58;15.27;;;9.88;;
23678;SDS011;12016;51.668;6.874;2023-02-15T12:47:06;12.88;;;9.63;;
23678;SDS011;12016;51.668;6.874;2023-02-15T12:53:19;13.48;;;10.48;;
23678;SDS011;12016;51.668;6.874;2023-02-15T12:59:36;14.57;;;10.73;;
23678;SDS011;12016;51.668;6.874;2023-02-15T13:05:39;13.00;;;10.45;;
23678;SDS011;12016;51.668;6.874;2023-02-15T13:11:45;14.18;;;10.43;;
23678;SDS011;12016;51.668;6.874;2023-02-15T13:17:48;15.98;;;10.55;;
23678;SDS011;12016;51.668;6.874;2023-02-15T13:23:55;17.15;;;11.55;;
23678;SDS011;12016;51.668;6.874;2023-02-15T13:30:04;14.73;;;10.82;;
23678;SDS011;12016;51.668;6.874;2023-02-15T13:42:56;16.88;;;11.15;;
23678;SDS011;12016;51.668;6.874;2023-02-15T14:14:09;18.55;;;11.43;;
23678;SDS011;12016;51.668;6.874;2023-02-15T14:26:56;19.63;;;11.98;;
23678;SDS011;12016;51.668;6.874;2023-02-15T14:39:23;27.35;;;11.95;;
23678;SDS011;12016;51.668;6.874;2023-02-15T14:46:16;18.05;;;11.75;;
23678;SDS011;12016;51.668;6.874;2023-02-15T14:53:14;22.00;;;12.90;;
23678;SDS011;12016;51.668;6.874;2023-02-15T15:05:54;23.00;;;13.32;;
23678;SDS011;12016;51.668;6.874;2023-02-15T15:49:34;22.23;;;13.32;;
23678;SDS011;12016;51.668;6.874;2023-02-15T15:55:38;24.33;;;14.23;;
23678;SDS011;12016;51.668;6.874;2023-02-15T16:01:42;22.10;;;13.98;;
23678;SDS011;12016;51.668;6.874;2023-02-15T16:07:45;23.65;;;13.80;;
23678;SDS011;12016;51.668;6.874;2023-02-15T16:13:47;21.52;;;13.30;;
23678;SDS011;12016;51.668;6.874;2023-02-15T16:19:48;21.25;;;13.98;;
23678;SDS011;12016;51.668;6.874;2023-02-15T16:31:59;22.13;;;12.77;;
23678;SDS011;12016;51.668;6.874;2023-02-15T16:38:03;19.00;;;12.52;;
23678;SDS011;12016;51.668;6.874;2023-02-15T16:44:12;24.23;;;14.40;;
23678;SDS011;12016;51.668;6.874;2023-02-15T16:50:21;22.58;;;12.93;;
23678;SDS011;12016;51.668;6.874;2023-02-15T16:56:27;24.40;;;13.88;;
23678;SDS011;12016;51.668;6.874;2023-02-15T17:02:32;21.05;;;13.27;;
23678;SDS011;12016;51.668;6.874;2023-02-15T17:09:03;22.45;;;13.43;;
23678;SDS011;12016;51.668;6.874;2023-02-15T17:15:36;22.80;;;14.27;;
23678;SDS011;12016;51.668;6.874;2023-02-15T17:21:47;24.23;;;13.38;;
23678;SDS011;12016;51.668;6.874;2023-02-15T17:27:52;21.58;;;13.68;;
23678;SDS011;12016;51.668;6.874;2023-02-15T17:33:57;20.63;;;13.75;;
23678;SDS011;12016;51.668;6.874;2023-02-15T17:40:00;23.08;;;14.10;;
23678;SDS011;12016;51.668;6.874;2023-02-15T17:46:15;23.25;;;15.25;;
23678;SDS011;12016;51.668;6.874;2023-02-15T17:52:20;23.40;;;15.52;;
23678;SDS011;12016;51.668;6.874;2023-02-15T17:58:22;27.27;;;15.40;;
23678;SDS011;12016;51.668;6.874;2023-02-15T18:04:24;21.80;;;15.48;;
23678;SDS011;12016;51.668;6.874;2023-02-15T18:10:44;22.83;;;15.02;;
23678;SDS011;12016;51.668;6.874;2023-02-15T18:17:08;20.13;;;14.35;;
23678;SDS011;12016;51.668;6.874;2023-02-15T18:23:13;21.45;;;15.55;;
23678;SDS011;12016;51.668;6.874;2023-02-15T18:29:15;24.58;;;15.30;;
23678;SDS011;12016;51.668;6.874;2023-02-15T18:35:17;21.73;;;15.65;;
23678;SDS011;12016;51.668;6.874;2023-02-15T18:41:21;23.23;;;15.63;;
23678;SDS011;12016;51.668;6.874;2023-02-15T18:47:23;20.83;;;15.00;;
23678;SDS011;12016;51.668;6.874;2023-02-15T18:53:25;18.10;;;13.85;;
23678;SDS011;12016;51.668;6.874;2023-02-15T18:59:27;18.33;;;13.98;;
23678;SDS011;12016;51.668;6.874;2023-02-15T19:05:32;18.23;;;13.75;;
23678;SDS011;12016;51.668;6.874;2023-02-15T19:11:34;17.45;;;13.65;;
23678;SDS011;12016;51.668;6.874;2023-02-15T19:17:36;17.38;;;13.43;;
23678;SDS011;12016;51.668;6.874;2023-02-15T19:23:37;20.58;;;14.77;;
23678;SDS011;12016;51.668;6.874;2023-02-15T19:29:40;23.17;;;17.63;;
23678;SDS011;12016;51.668;6.874;2023-02-15T19:35:43;18.75;;;15.63;;
23678;SDS011;12016;51.668;6.874;2023-02-15T19:41:47;21.08;;;15.13;;
23678;SDS011;12016;51.668;6.874;2023-02-15T19:47:49;19.17;;;14.18;;
23678;SDS011;12016;51.668;6.874;2023-02-15T19:53:52;18.30;;;14.18;;
23678;SDS011;12016;51.668;6.874;2023-02-15T19:59:55;17.70;;;13.90;;
23678;SDS011;12016;51.668;6.874;2023-02-15T20:06:00;21.17;;;15.30;;
23678;SDS011;12016;51.668;6.874;2023-02-15T20:12:05;17.50;;;13.77;;
23678;SDS011;12016;51.668;6.874;2023-02-15T20:18:19;17.17;;;13.95;;
23678;SDS011;12016;51.668;6.874;2023-02-15T20:24:23;18.55;;;15.05;;
23678;SDS011;12016;51.668;6.874;2023-02-15T20:30:30;20.92;;;15.07;;
23678;SDS011;12016;51.668;6.874;2023-02-15T20:36:33;17.95;;;14.93;;
23678;SDS011;12016;51.668;6.874;2023-02-15T20:42:35;20.20;;;14.60;;
23678;SDS011;12016;51.668;6.874;2023-02-15T20:48:42;18.00;;;14.13;;
23678;SDS011;12016;51.668;6.874;2023-02-15T20:54:44;17.10;;;14.15;;
23678;SDS011;12016;51.668;6.874;2023-02-15T21:00:46;21.23;;;14.30;;
23678;SDS011;12016;51.668;6.874;2023-02-15T21:06:48;18.48;;;14.05;;
23678;SDS011;12016;51.668;6.874;2023-02-15T21:12:50;17.70;;;13.73;;
23678;SDS011;12016;51.668;6.874;2023-02-15T21:18:53;20.92;;;14.05;;
23678;SDS011;12016;51.668;6.874;2023-02-15T21:24:55;19.20;;;14.40;;
23678;SDS011;12016;51.668;6.874;2023-02-15T21:30:57;20.08;;;14.23;;
23678;SDS011;12016;51.668;6.874;2023-02-15T21:36:59;20.98;;;15.10;;
23678;SDS011;12016;51.668;6.874;2023-02-15T21:43:01;19.15;;;14.25;;
23678;SDS011;12016;51.668;6.874;2023-02-15T21:49:21;19.73;;;14.77;;
23678;SDS011;12016;51.668;6.874;2023-02-15T21:55:23;18.45;;;14.35;;
23678;SDS011;12016;51.668;6.874;2023-02-15T22:01:26;20.35;;;15.23;;
23678;SDS011;12016;51.668;6.874;2023-02-15T22:07:28;20.15;;;15.65;;
23678;SDS011;12016;51.668;6.874;2023-02-15T22:13:31;26.27;;;18.60;;
23678;SDS011;12016;51.668;6.874;2023-02-15T22:19:34;23.85;;;17.27;;
23678;SDS011;12016;51.668;6.874;2023-02-15T22:25:36;26.08;;;17.50;;
23678;SDS011;12016;51.668;6.874;2023-02-15T22:31:41;28.38;;;18.85;;
23678;SDS011;12016;51.668;6.874;2023-02-15T22:37:44;22.27;;;16.80;;
23678;SDS011;12016;51.668;6.874;2023-02-15T22:43:46;23.48;;;17.73;;
23678;SDS011;12016;51.668;6.874;2023-02-15T22:49:49;23.05;;;18.05;;
23678;SDS011;12016;51.668;6.874;2023-02-15T22:55:51;23.05;;;18.25;;
23678;SDS011;12016;51.668;6.874;2023-02-15T23:01:55;23.10;;;17.90;;
23678;SDS011;12016;51.668;6.874;2023-02-15T23:07:58;23.98;;;18.15;;
23678;SDS011;12016;51.668;6.874;2023-02-15T23:13:59;23.67;;;18.45;;
23678;SDS011;12016;51.668;6.874;2023-02-15T23:20:03;24.08;;;17.15;;
23678;SDS011;12016;51.668;6.874;2023-02-15T23:26:16;24.33;;;18.60;;
23678;SDS011;12016;51.668;6.874;2023-02-15T23:32:23;23.98;;;18.10;;
23678;SDS011;12016;51.668;6.874;2023-02-15T23:38:26;26.25;;;20.15;;
23678;SDS011;12016;51.668;6.874;2023-02-15T23:44:29;27.38;;;20.48;;
23678;SDS011;12016;51.668;6.874;2023-02-15T23:50:34;28.33;;;20.33;;
23678;SDS011;12016;51.668;6.874;2023-02-15T23:56:37;27.50;;;20.92;;
